Beryl Junction, Utah
Current Conditions -  °F | °C
As of 4:53 PM on Sunday 25 Jan 2015 (Local Time) from KCDC Reporting Station
Clear Clear  
Wind Chill: 12°   Ceiling: Unl
Heat Index: 12°   Visibility: 10mi
Dew Point: -1°   Wind: 7mph
Humidity: 43%   Direction: 20°NNE
Pressure: 30.32"   Gusts: NA
Location:  38.0286°N, 113.572°W
Report Text: KCDC 252353Z AUTO 02006KT 10SM CLR 12/M01 A3032 RMK AO2 SLP259 T01171006 10128 20050 55006
Loading
Personal Weather Stations






























Interactive Weather Map New forecast layout! Learn more

10-Day Weather Forecast

Advertisements
Track Severe Weather on mobile